sensor_id;sensor_type;location;lat;lon;timestamp;temperature;humidity
10968;DHT22;5536;49.602;10.980;2023-09-19T00:02:22;15.90;99.90
10968;DHT22;5536;49.602;10.980;2023-09-19T00:04:49;16.00;99.90
10968;DHT22;5536;49.602;10.980;2023-09-19T00:07:17;16.00;99.90
10968;DHT22;5536;49.602;10.980;2023-09-19T00:09:44;15.90;99.90
10968;DHT22;5536;49.602;10.980;2023-09-19T00:12:11;15.90;99.90
10968;DHT22;5536;49.602;10.980;2023-09-19T00:14:39;15.90;99.90
10968;DHT22;5536;49.602;10.980;2023-09-19T00:17:07;16.00;99.90
10968;DHT22;5536;49.602;10.980;2023-09-19T00:19:35;15.80;99.90
10968;DHT22;5536;49.602;10.980;2023-09-19T00:22:03;15.90;99.90
10968;DHT22;5536;49.602;10.980;2023-09-19T00:24:30;16.00;99.90
10968;DHT22;5536;49.602;10.980;2023-09-19T00:26:57;15.70;99.90
10968;DHT22;5536;49.602;10.980;2023-09-19T00:29:25;15.70;99.90
10968;DHT22;5536;49.602;10.980;2023-09-19T00:31:55;15.80;99.90
10968;DHT22;5536;49.602;10.980;2023-09-19T00:34:24;15.70;99.90
10968;DHT22;5536;49.602;10.980;2023-09-19T00:36:51;15.70;99.90
10968;DHT22;5536;49.602;10.980;2023-09-19T00:39:19;15.80;99.90
10968;DHT22;5536;49.602;10.980;2023-09-19T00:41:47;15.80;99.90
10968;DHT22;5536;49.602;10.980;2023-09-19T00:44:15;15.70;99.90
10968;DHT22;5536;49.602;10.980;2023-09-19T00:46:43;15.60;99.90
10968;DHT22;5536;49.602;10.980;2023-09-19T00:49:13;15.60;99.90
10968;DHT22;5536;49.602;10.980;2023-09-19T00:51:42;15.70;99.90
10968;DHT22;5536;49.602;10.980;2023-09-19T00:54:13;15.70;99.90
10968;DHT22;5536;49.602;10.980;2023-09-19T00:56:44;15.50;99.90
10968;DHT22;5536;49.602;10.980;2023-09-19T01:02:22;15.30;99.90
10968;DHT22;5536;49.602;10.980;2023-09-19T01:04:49;15.30;99.90
10968;DHT22;5536;49.602;10.980;2023-09-19T01:07:18;15.30;99.90
10968;DHT22;5536;49.602;10.980;2023-09-19T01:09:45;15.30;99.90
10968;DHT22;5536;49.602;10.980;2023-09-19T01:12:16;15.30;99.90
10968;DHT22;5536;49.602;10.980;2023-09-19T01:14:54;15.30;99.90
10968;DHT22;5536;49.602;10.980;2023-09-19T01:17:27;15.40;99.90
10968;DHT22;5536;49.602;10.980;2023-09-19T01:20:15;15.40;99.90
10968;DHT22;5536;49.602;10.980;2023-09-19T01:22:53;15.50;99.90
10968;DHT22;5536;49.602;10.980;2023-09-19T01:28:43;15.30;99.90
10968;DHT22;5536;49.602;10.980;2023-09-19T01:31:14;15.30;99.90
10968;DHT22;5536;49.602;10.980;2023-09-19T01:33:58;15.30;99.90
10968;DHT22;5536;49.602;10.980;2023-09-19T01:36:29;15.30;99.90
10968;DHT22;5536;49.602;10.980;2023-09-19T01:39:00;15.40;99.90
10968;DHT22;5536;49.602;10.980;2023-09-19T01:41:45;15.40;99.90
10968;DHT22;5536;49.602;10.980;2023-09-19T01:44:19;15.40;99.90
10968;DHT22;5536;49.602;10.980;2023-09-19T01:46:50;15.40;99.90
10968;DHT22;5536;49.602;10.980;2023-09-19T01:49:25;15.40;99.90
10968;DHT22;5536;49.602;10.980;2023-09-19T01:52:00;15.50;99.90
10968;DHT22;5536;49.602;10.980;2023-09-19T01:54:33;15.60;99.90
10968;DHT22;5536;49.602;10.980;2023-09-19T01:57:09;15.70;99.90
10968;DHT22;5536;49.602;10.980;2023-09-19T01:59:45;15.60;99.90
10968;DHT22;5536;49.602;10.980;2023-09-19T02:02:17;15.60;99.90
10968;DHT22;5536;49.602;10.980;2023-09-19T02:04:44;15.50;99.90
10968;DHT22;5536;49.602;10.980;2023-09-19T02:07:11;15.40;99.90
10968;DHT22;5536;49.602;10.980;2023-09-19T02:09:40;15.60;99.90
10968;DHT22;5536;49.602;10.980;2023-09-19T02:12:09;15.70;99.90
10968;DHT22;5536;49.602;10.980;2023-09-19T02:14:36;15.80;99.90
10968;DHT22;5536;49.602;10.980;2023-09-19T02:17:04;15.70;99.90
10968;DHT22;5536;49.602;10.980;2023-09-19T02:19:34;15.70;99.90
10968;DHT22;5536;49.602;10.980;2023-09-19T02:22:04;15.70;99.90
10968;DHT22;5536;49.602;10.980;2023-09-19T02:24:33;15.70;99.90
10968;DHT22;5536;49.602;10.980;2023-09-19T02:27:00;15.70;99.90
10968;DHT22;5536;49.602;10.980;2023-09-19T02:29:29;15.80;99.90
10968;DHT22;5536;49.602;10.980;2023-09-19T02:31:57;15.80;99.90
10968;DHT22;5536;49.602;10.980;2023-09-19T02:34:24;15.80;99.90
10968;DHT22;5536;49.602;10.980;2023-09-19T02:36:53;15.90;99.90
10968;DHT22;5536;49.602;10.980;2023-09-19T02:39:20;15.90;99.90
10968;DHT22;5536;49.602;10.980;2023-09-19T02:41:49;15.90;99.90
10968;DHT22;5536;49.602;10.980;2023-09-19T02:44:16;15.80;99.90
10968;DHT22;5536;49.602;10.980;2023-09-19T02:46:46;15.90;99.90
10968;DHT22;5536;49.602;10.980;2023-09-19T02:49:13;16.10;99.90
10968;DHT22;5536;49.602;10.980;2023-09-19T02:51:41;16.00;99.90
10968;DHT22;5536;49.602;10.980;2023-09-19T02:54:10;16.10;99.90
10968;DHT22;5536;49.602;10.980;2023-09-19T02:56:37;16.20;99.90
10968;DHT22;5536;49.602;10.980;2023-09-19T02:59:04;16.20;99.90
10968;DHT22;5536;49.602;10.980;2023-09-19T03:01:32;16.20;99.90
10968;DHT22;5536;49.602;10.980;2023-09-19T03:03:59;16.30;99.90
10968;DHT22;5536;49.602;10.980;2023-09-19T03:06:26;16.30;99.90
10968;DHT22;5536;49.602;10.980;2023-09-19T03:08:56;16.30;99.90
10968;DHT22;5536;49.602;10.980;2023-09-19T03:11:27;16.30;99.90
10968;DHT22;5536;49.602;10.980;2023-09-19T03:13:54;16.30;99.90
10968;DHT22;5536;49.602;10.980;2023-09-19T03:16:21;16.30;99.90
10968;DHT22;5536;49.602;10.980;2023-09-19T03:18:48;16.30;99.90
10968;DHT22;5536;49.602;10.980;2023-09-19T03:21:15;16.30;99.90
10968;DHT22;5536;49.602;10.980;2023-09-19T03:23:43;16.30;99.90
10968;DHT22;5536;49.602;10.980;2023-09-19T03:26:11;16.20;99.90
10968;DHT22;5536;49.602;10.980;2023-09-19T03:28:41;16.20;99.90
10968;DHT22;5536;49.602;10.980;2023-09-19T03:31:09;16.20;99.90
10968;DHT22;5536;49.602;10.980;2023-09-19T03:33:36;16.10;99.90
10968;DHT22;5536;49.602;10.980;2023-09-19T03:36:04;16.00;99.90
10968;DHT22;5536;49.602;10.980;2023-09-19T03:38:31;16.00;99.90
10968;DHT22;5536;49.602;10.980;2023-09-19T03:40:59;16.00;99.90
10968;DHT22;5536;49.602;10.980;2023-09-19T03:43:26;15.90;99.90
10968;DHT22;5536;49.602;10.980;2023-09-19T03:45:55;15.80;99.90
10968;DHT22;5536;49.602;10.980;2023-09-19T03:48:22;15.80;99.90
10968;DHT22;5536;49.602;10.980;2023-09-19T03:50:49;15.90;99.90
10968;DHT22;5536;49.602;10.980;2023-09-19T03:53:16;15.90;99.90
10968;DHT22;5536;49.602;10.980;2023-09-19T03:55:45;16.00;99.90
10968;DHT22;5536;49.602;10.980;2023-09-19T03:58:12;15.90;99.90
10968;DHT22;5536;49.602;10.980;2023-09-19T04:00:39;16.00;99.90
10968;DHT22;5536;49.602;10.980;2023-09-19T04:03:08;16.00;99.90
10968;DHT22;5536;49.602;10.980;2023-09-19T04:05:36;16.00;99.90
10968;DHT22;5536;49.602;10.980;2023-09-19T04:08:04;16.00;99.90
10968;DHT22;5536;49.602;10.980;2023-09-19T04:10:31;16.00;99.90
10968;DHT22;5536;49.602;10.980;2023-09-19T04:12:58;16.00;99.90
10968;DHT22;5536;49.602;10.980;2023-09-19T04:15:25;16.10;99.90
10968;DHT22;5536;49.602;10.980;2023-09-19T04:17:53;16.10;99.90
10968;DHT22;5536;49.602;10.980;2023-09-19T04:20:21;16.20;99.90
10968;DHT22;5536;49.602;10.980;2023-09-19T04:22:49;16.20;99.90
10968;DHT22;5536;49.602;10.980;2023-09-19T04:25:16;16.20;99.90
10968;DHT22;5536;49.602;10.980;2023-09-19T04:27:44;16.20;99.90
10968;DHT22;5536;49.602;10.980;2023-09-19T04:30:12;16.10;99.90
10968;DHT22;5536;49.602;10.980;2023-09-19T04:32:40;16.10;99.90
10968;DHT22;5536;49.602;10.980;2023-09-19T04:35:08;16.10;99.90
10968;DHT22;5536;49.602;10.980;2023-09-19T04:37:39;16.10;99.90
10968;DHT22;5536;49.602;10.980;2023-09-19T04:40:08;16.20;99.90
10968;DHT22;5536;49.602;10.980;2023-09-19T04:42:40;16.30;99.90
10968;DHT22;5536;49.602;10.980;2023-09-19T04:45:07;16.30;99.90
10968;DHT22;5536;49.602;10.980;2023-09-19T04:47:36;16.30;99.90
10968;DHT22;5536;49.602;10.980;2023-09-19T04:50:08;16.40;99.90
10968;DHT22;5536;49.602;10.980;2023-09-19T04:52:41;16.40;99.90
10968;DHT22;5536;49.602;10.980;2023-09-19T04:55:12;16.40;99.90
10968;DHT22;5536;49.602;10.980;2023-09-19T04:57:42;16.40;99.90
10968;DHT22;5536;49.602;10.980;2023-09-19T05:00:11;16.30;99.90
10968;DHT22;5536;49.602;10.980;2023-09-19T05:02:40;16.40;99.90
10968;DHT22;5536;49.602;10.980;2023-09-19T05:05:08;16.40;99.90
10968;DHT22;5536;49.602;10.980;2023-09-19T05:07:35;16.40;99.90
10968;DHT22;5536;49.602;10.980;2023-09-19T05:10:05;16.50;99.90
10968;DHT22;5536;49.602;10.980;2023-09-19T05:12:33;16.50;99.90
10968;DHT22;5536;49.602;10.980;2023-09-19T05:15:01;16.50;99.90
10968;DHT22;5536;49.602;10.980;2023-09-19T05:17:29;16.60;99.90
10968;DHT22;5536;49.602;10.980;2023-09-19T05:19:56;16.60;99.90
10968;DHT22;5536;49.602;10.980;2023-09-19T05:22:23;16.70;99.90
10968;DHT22;5536;49.602;10.980;2023-09-19T05:24:51;16.70;99.90
10968;DHT22;5536;49.602;10.980;2023-09-19T05:27:20;16.70;99.90
10968;DHT22;5536;49.602;10.980;2023-09-19T05:29:47;16.80;99.90
10968;DHT22;5536;49.602;10.980;2023-09-19T05:32:16;16.80;99.90
10968;DHT22;5536;49.602;10.980;2023-09-19T05:34:45;16.80;99.90
10968;DHT22;5536;49.602;10.980;2023-09-19T05:37:13;16.80;99.90
10968;DHT22;5536;49.602;10.980;2023-09-19T05:39:43;16.90;99.90
10968;DHT22;5536;49.602;10.980;2023-09-19T05:42:10;16.90;99.90
10968;DHT22;5536;49.602;10.980;2023-09-19T05:44:38;16.90;99.90
10968;DHT22;5536;49.602;10.980;2023-09-19T05:47:06;17.00;99.90
10968;DHT22;5536;49.602;10.980;2023-09-19T05:49:34;17.00;99.90
10968;DHT22;5536;49.602;10.980;2023-09-19T05:52:04;17.00;99.90
10968;DHT22;5536;49.602;10.980;2023-09-19T05:54:32;17.10;99.90
10968;DHT22;5536;49.602;10.980;2023-09-19T05:56:59;17.00;99.90
10968;DHT22;5536;49.602;10.980;2023-09-19T05:59:27;17.00;99.90
10968;DHT22;5536;49.602;10.980;2023-09-19T06:01:55;17.00;99.90
10968;DHT22;5536;49.602;10.980;2023-09-19T06:04:22;17.00;99.90
10968;DHT22;5536;49.602;10.980;2023-09-19T06:06:49;17.00;99.90
10968;DHT22;5536;49.602;10.980;2023-09-19T06:09:16;17.10;99.90
10968;DHT22;5536;49.602;10.980;2023-09-19T06:11:44;17.10;99.90
10968;DHT22;5536;49.602;10.980;2023-09-19T06:14:12;17.10;99.90
10968;DHT22;5536;49.602;10.980;2023-09-19T06:16:39;17.10;99.90
10968;DHT22;5536;49.602;10.980;2023-09-19T06:19:09;17.00;99.90
10968;DHT22;5536;49.602;10.980;2023-09-19T06:21:36;16.90;99.90
10968;DHT22;5536;49.602;10.980;2023-09-19T06:24:03;17.00;99.90
10968;DHT22;5536;49.602;10.980;2023-09-19T06:26:30;16.90;99.90
10968;DHT22;5536;49.602;10.980;2023-09-19T06:28:58;16.90;99.90
10968;DHT22;5536;49.602;10.980;2023-09-19T06:31:25;17.00;99.90
10968;DHT22;5536;49.602;10.980;2023-09-19T06:33:52;17.00;99.90
10968;DHT22;5536;49.602;10.980;2023-09-19T06:36:21;17.10;99.90
10968;DHT22;5536;49.602;10.980;2023-09-19T06:38:48;17.10;99.90
10968;DHT22;5536;49.602;10.980;2023-09-19T06:41:17;17.20;99.90
10968;DHT22;5536;49.602;10.980;2023-09-19T06:43:44;17.30;99.90
10968;DHT22;5536;49.602;10.980;2023-09-19T06:46:11;17.50;99.90
10968;DHT22;5536;49.602;10.980;2023-09-19T06:48:38;17.60;99.90
10968;DHT22;5536;49.602;10.980;2023-09-19T06:51:06;17.70;99.90
10968;DHT22;5536;49.602;10.980;2023-09-19T06:53:35;17.60;99.90
10968;DHT22;5536;49.602;10.980;2023-09-19T06:56:02;17.60;99.90
10968;DHT22;5536;49.602;10.980;2023-09-19T06:58:29;17.60;99.90
10968;DHT22;5536;49.602;10.980;2023-09-19T07:00:57;17.70;99.90
10968;DHT22;5536;49.602;10.980;2023-09-19T07:03:24;17.70;99.90
10968;DHT22;5536;49.602;10.980;2023-09-19T07:05:52;17.70;99.90
10968;DHT22;5536;49.602;10.980;2023-09-19T07:08:22;17.80;99.90
10968;DHT22;5536;49.602;10.980;2023-09-19T07:10:50;18.00;99.90
10968;DHT22;5536;49.602;10.980;2023-09-19T07:13:19;18.00;99.90
10968;DHT22;5536;49.602;10.980;2023-09-19T07:15:46;18.00;99.90
10968;DHT22;5536;49.602;10.980;2023-09-19T07:18:16;18.00;99.90
10968;DHT22;5536;49.602;10.980;2023-09-19T07:20:43;18.00;99.90
10968;DHT22;5536;49.602;10.980;2023-09-19T07:23:14;18.20;99.90
10968;DHT22;5536;49.602;10.980;2023-09-19T07:25:42;18.30;99.90
10968;DHT22;5536;49.602;10.980;2023-09-19T07:28:10;18.30;99.90
10968;DHT22;5536;49.602;10.980;2023-09-19T07:30:37;18.30;99.90
10968;DHT22;5536;49.602;10.980;2023-09-19T07:33:05;18.30;99.90
10968;DHT22;5536;49.602;10.980;2023-09-19T07:35:32;18.10;99.90
10968;DHT22;5536;49.602;10.980;2023-09-19T07:38:00;18.00;99.90
10968;DHT22;5536;49.602;10.980;2023-09-19T07:40:28;18.00;99.90
10968;DHT22;5536;49.602;10.980;2023-09-19T07:42:55;18.00;99.90
10968;DHT22;5536;49.602;10.980;2023-09-19T07:45:24;18.10;99.90
10968;DHT22;5536;49.602;10.980;2023-09-19T07:47:51;18.10;99.90
10968;DHT22;5536;49.602;10.980;2023-09-19T07:50:19;18.20;99.90
10968;DHT22;5536;49.602;10.980;2023-09-19T07:52:46;18.20;99.90
10968;DHT22;5536;49.602;10.980;2023-09-19T07:55:13;18.20;99.90
10968;DHT22;5536;49.602;10.980;2023-09-19T07:57:42;18.20;99.90
10968;DHT22;5536;49.602;10.980;2023-09-19T08:00:10;18.20;99.90
10968;DHT22;5536;49.602;10.980;2023-09-19T08:02:39;18.20;99.90
10968;DHT22;5536;49.602;10.980;2023-09-19T08:05:08;18.10;99.90
10968;DHT22;5536;49.602;10.980;2023-09-19T08:07:37;18.10;99.90
10968;DHT22;5536;49.602;10.980;2023-09-19T08:10:04;18.10;99.90
10968;DHT22;5536;49.602;10.980;2023-09-19T08:12:33;18.00;99.90
10968;DHT22;5536;49.602;10.980;2023-09-19T08:15:01;17.90;99.90
10968;DHT22;5536;49.602;10.980;2023-09-19T08:17:28;18.00;99.90
10968;DHT22;5536;49.602;10.980;2023-09-19T08:19:56;18.00;99.90
10968;DHT22;5536;49.602;10.980;2023-09-19T08:22:23;18.20;99.90
10968;DHT22;5536;49.602;10.980;2023-09-19T08:24:50;18.30;99.90
10968;DHT22;5536;49.602;10.980;2023-09-19T08:27:17;18.40;99.90
10968;DHT22;5536;49.602;10.980;2023-09-19T08:29:45;18.50;99.90
10968;DHT22;5536;49.602;10.980;2023-09-19T08:32:12;18.50;99.90
10968;DHT22;5536;49.602;10.980;2023-09-19T08:34:40;18.60;99.90
10968;DHT22;5536;49.602;10.980;2023-09-19T08:37:08;18.70;99.90
10968;DHT22;5536;49.602;10.980;2023-09-19T08:39:36;18.70;99.90
10968;DHT22;5536;49.602;10.980;2023-09-19T08:42:03;18.90;99.90
10968;DHT22;5536;49.602;10.980;2023-09-19T08:44:36;19.00;99.90
10968;DHT22;5536;49.602;10.980;2023-09-19T08:47:09;19.10;99.90
10968;DHT22;5536;49.602;10.980;2023-09-19T08:49:42;19.10;99.90
10968;DHT22;5536;49.602;10.980;2023-09-19T08:52:19;19.10;99.90
10968;DHT22;5536;49.602;10.980;2023-09-19T08:54:52;19.00;99.90
10968;DHT22;5536;49.602;10.980;2023-09-19T08:57:20;19.00;99.90
10968;DHT22;5536;49.602;10.980;2023-09-19T08:59:48;19.00;99.90
10968;DHT22;5536;49.602;10.980;2023-09-19T09:02:16;19.00;99.90
10968;DHT22;5536;49.602;10.980;2023-09-19T09:04:45;19.10;99.90
10968;DHT22;5536;49.602;10.980;2023-09-19T09:07:25;19.10;99.90
10968;DHT22;5536;49.602;10.980;2023-09-19T09:10:01;19.10;99.90
10968;DHT22;5536;49.602;10.980;2023-09-19T09:12:30;19.20;99.90
10968;DHT22;5536;49.602;10.980;2023-09-19T09:15:02;19.20;99.90
10968;DHT22;5536;49.602;10.980;2023-09-19T09:17:30;19.20;99.90
10968;DHT22;5536;49.602;10.980;2023-09-19T09:19:57;19.30;99.90
10968;DHT22;5536;49.602;10.980;2023-09-19T09:22:25;19.30;99.90
10968;DHT22;5536;49.602;10.980;2023-09-19T09:24:53;19.10;99.90
10968;DHT22;5536;49.602;10.980;2023-09-19T09:27:23;19.00;99.90
10968;DHT22;5536;49.602;10.980;2023-09-19T09:29:51;19.00;99.90
10968;DHT22;5536;49.602;10.980;2023-09-19T09:32:22;18.90;99.90
10968;DHT22;5536;49.602;10.980;2023-09-19T09:34:51;18.90;99.90
10968;DHT22;5536;49.602;10.980;2023-09-19T09:37:19;18.90;99.90
10968;DHT22;5536;49.602;10.980;2023-09-19T09:39:53;18.80;99.90
10968;DHT22;5536;49.602;10.980;2023-09-19T09:42:39;19.00;99.90
10968;DHT22;5536;49.602;10.980;2023-09-19T09:45:17;19.00;99.90
10968;DHT22;5536;49.602;10.980;2023-09-19T09:47:46;19.20;99.90
10968;DHT22;5536;49.602;10.980;2023-09-19T09:50:29;19.20;99.90
10968;DHT22;5536;49.602;10.980;2023-09-19T09:53:19;19.50;99.90
10968;DHT22;5536;49.602;10.980;2023-09-19T09:56:02;19.60;99.90
10968;DHT22;5536;49.602;10.980;2023-09-19T09:58:32;19.70;99.90
10968;DHT22;5536;49.602;10.980;2023-09-19T10:00:59;19.60;99.90
10968;DHT22;5536;49.602;10.980;2023-09-19T10:03:33;19.70;99.90
10968;DHT22;5536;49.602;10.980;2023-09-19T10:06:05;19.80;99.90
10968;DHT22;5536;49.602;10.980;2023-09-19T10:08:58;19.90;99.90
10968;DHT22;5536;49.602;10.980;2023-09-19T10:11:31;19.90;99.90
10968;DHT22;5536;49.602;10.980;2023-09-19T10:14:00;19.80;99.90
10968;DHT22;5536;49.602;10.980;2023-09-19T10:16:32;19.60;99.90
10968;DHT22;5536;49.602;10.980;2023-09-19T10:19:02;19.50;99.90
10968;DHT22;5536;49.602;10.980;2023-09-19T10:21:32;19.50;99.90
10968;DHT22;5536;49.602;10.980;2023-09-19T10:24:03;19.40;99.90
10968;DHT22;5536;49.602;10.980;2023-09-19T10:26:36;19.50;99.90
10968;DHT22;5536;49.602;10.980;2023-09-19T10:29:06;19.60;99.90
10968;DHT22;5536;49.602;10.980;2023-09-19T10:31:36;19.60;99.90
10968;DHT22;5536;49.602;10.980;2023-09-19T10:34:07;19.40;99.90
10968;DHT22;5536;49.602;10.980;2023-09-19T10:36:36;19.30;99.90
10968;DHT22;5536;49.602;10.980;2023-09-19T10:39:06;19.50;99.90
10968;DHT22;5536;49.602;10.980;2023-09-19T10:41:36;19.60;99.90
10968;DHT22;5536;49.602;10.980;2023-09-19T10:44:04;19.70;99.90
10968;DHT22;5536;49.602;10.980;2023-09-19T10:46:32;19.70;99.90
10968;DHT22;5536;49.602;10.980;2023-09-19T10:48:59;19.70;99.90
10968;DHT22;5536;49.602;10.980;2023-09-19T10:51:30;19.80;99.90
10968;DHT22;5536;49.602;10.980;2023-09-19T10:54:02;20.20;99.90
10968;DHT22;5536;49.602;10.980;2023-09-19T10:56:34;20.10;99.90
10968;DHT22;5536;49.602;10.980;2023-09-19T10:59:09;20.20;99.90
10968;DHT22;5536;49.602;10.980;2023-09-19T11:01:43;20.10;99.90
10968;DHT22;5536;49.602;10.980;2023-09-19T11:04:28;20.30;99.90
10968;DHT22;5536;49.602;10.980;2023-09-19T11:07:03;20.40;99.90
10968;DHT22;5536;49.602;10.980;2023-09-19T11:09:44;20.60;99.90
10968;DHT22;5536;49.602;10.980;2023-09-19T11:12:12;20.90;99.90
10968;DHT22;5536;49.602;10.980;2023-09-19T11:15:08;21.10;99.90
10968;DHT22;5536;49.602;10.980;2023-09-19T11:17:37;21.10;99.90
10968;DHT22;5536;49.602;10.980;2023-09-19T11:20:20;21.20;99.90
10968;DHT22;5536;49.602;10.980;2023-09-19T11:23:23;21.80;99.90
10968;DHT22;5536;49.602;10.980;2023-09-19T11:25:51;22.30;99.90
10968;DHT22;5536;49.602;10.980;2023-09-19T11:28:35;22.50;99.90
10968;DHT22;5536;49.602;10.980;2023-09-19T11:34:47;22.30;99.90
10968;DHT22;5536;49.602;10.980;2023-09-19T11:40:45;22.50;99.90
10968;DHT22;5536;49.602;10.980;2023-09-19T11:43:31;23.10;99.90
10968;DHT22;5536;49.602;10.980;2023-09-19T11:46:08;22.90;99.90
10968;DHT22;5536;49.602;10.980;2023-09-19T11:48:35;23.30;99.90
10968;DHT22;5536;49.602;10.980;2023-09-19T11:51:15;23.70;99.90
10968;DHT22;5536;49.602;10.980;2023-09-19T11:53:48;23.80;99.90
10968;DHT22;5536;49.602;10.980;2023-09-19T11:56:16;24.00;99.90
10968;DHT22;5536;49.602;10.980;2023-09-19T11:58:44;23.30;99.90
10968;DHT22;5536;49.602;10.980;2023-09-19T12:01:13;22.90;99.90
10968;DHT22;5536;49.602;10.980;2023-09-19T12:03:47;22.90;99.90
10968;DHT22;5536;49.602;10.980;2023-09-19T12:06:17;23.10;99.90
10968;DHT22;5536;49.602;10.980;2023-09-19T12:08:44;23.10;99.90
10968;DHT22;5536;49.602;10.980;2023-09-19T12:11:13;23.10;99.90
10968;DHT22;5536;49.602;10.980;2023-09-19T12:13:43;23.00;99.90
10968;DHT22;5536;49.602;10.980;2023-09-19T12:16:12;22.70;99.90
10968;DHT22;5536;49.602;10.980;2023-09-19T12:18:41;23.10;99.90
10968;DHT22;5536;49.602;10.980;2023-09-19T12:21:23;23.00;99.90
10968;DHT22;5536;49.602;10.980;2023-09-19T12:24:14;22.80;99.90
10968;DHT22;5536;49.602;10.980;2023-09-19T12:26:45;23.20;99.90
10968;DHT22;5536;49.602;10.980;2023-09-19T12:29:15;23.30;99.90
10968;DHT22;5536;49.602;10.980;2023-09-19T12:31:48;23.20;99.90
10968;DHT22;5536;49.602;10.980;2023-09-19T12:34:20;23.70;99.90
10968;DHT22;5536;49.602;10.980;2023-09-19T12:37:02;23.70;99.90
10968;DHT22;5536;49.602;10.980;2023-09-19T12:39:31;24.20;99.90
10968;DHT22;5536;49.602;10.980;2023-09-19T12:41:58;24.40;99.90
10968;DHT22;5536;49.602;10.980;2023-09-19T12:44:25;24.30;99.90
10968;DHT22;5536;49.602;10.980;2023-09-19T12:46:53;24.30;99.90
10968;DHT22;5536;49.602;10.980;2023-09-19T12:49:20;24.20;99.90
10968;DHT22;5536;49.602;10.980;2023-09-19T12:51:54;24.10;99.90
10968;DHT22;5536;49.602;10.980;2023-09-19T12:54:22;24.00;99.90
10968;DHT22;5536;49.602;10.980;2023-09-19T12:56:51;24.10;99.90
10968;DHT22;5536;49.602;10.980;2023-09-19T12:59:29;24.10;99.90
10968;DHT22;5536;49.602;10.980;2023-09-19T13:02:04;24.20;99.90
10968;DHT22;5536;49.602;10.980;2023-09-19T13:04:33;24.30;99.90
10968;DHT22;5536;49.602;10.980;2023-09-19T13:07:07;24.30;99.90
10968;DHT22;5536;49.602;10.980;2023-09-19T13:09:34;24.00;99.90
10968;DHT22;5536;49.602;10.980;2023-09-19T13:12:04;24.10;99.90
10968;DHT22;5536;49.602;10.980;2023-09-19T13:14:33;24.40;99.90
10968;DHT22;5536;49.602;10.980;2023-09-19T13:17:04;24.70;99.90
10968;DHT22;5536;49.602;10.980;2023-09-19T13:19:41;25.20;99.90
10968;DHT22;5536;49.602;10.980;2023-09-19T13:22:37;25.20;99.90
10968;DHT22;5536;49.602;10.980;2023-09-19T13:25:06;25.20;99.90
10968;DHT22;5536;49.602;10.980;2023-09-19T13:27:37;25.10;99.90
10968;DHT22;5536;49.602;10.980;2023-09-19T13:30:05;25.40;99.90
10968;DHT22;5536;49.602;10.980;2023-09-19T13:32:32;25.20;99.90
10968;DHT22;5536;49.602;10.980;2023-09-19T13:34:59;25.20;99.90
10968;DHT22;5536;49.602;10.980;2023-09-19T13:37:26;25.10;99.90
10968;DHT22;5536;49.602;10.980;2023-09-19T13:39:55;25.40;99.90
10968;DHT22;5536;49.602;10.980;2023-09-19T13:42:24;25.30;99.90
10968;DHT22;5536;49.602;10.980;2023-09-19T13:44:51;25.60;99.90
10968;DHT22;5536;49.602;10.980;2023-09-19T13:47:19;25.60;99.90
10968;DHT22;5536;49.602;10.980;2023-09-19T13:49:50;25.60;99.90
10968;DHT22;5536;49.602;10.980;2023-09-19T13:52:18;26.00;99.90
10968;DHT22;5536;49.602;10.980;2023-09-19T13:54:45;26.20;99.90
10968;DHT22;5536;49.602;10.980;2023-09-19T13:57:13;26.00;99.90
10968;DHT22;5536;49.602;10.980;2023-09-19T13:59:40;26.20;99.90
10968;DHT22;5536;49.602;10.980;2023-09-19T14:02:07;25.90;99.90
10968;DHT22;5536;49.602;10.980;2023-09-19T14:04:34;26.00;99.90
10968;DHT22;5536;49.602;10.980;2023-09-19T14:07:01;25.40;99.90
10968;DHT22;5536;49.602;10.980;2023-09-19T14:09:29;24.60;99.90
10968;DHT22;5536;49.602;10.980;2023-09-19T14:11:56;23.80;99.90
10968;DHT22;5536;49.602;10.980;2023-09-19T14:14:25;23.50;99.90
10968;DHT22;5536;49.602;10.980;2023-09-19T14:16:52;23.50;99.90
10968;DHT22;5536;49.602;10.980;2023-09-19T14:19:19;23.40;99.90
10968;DHT22;5536;49.602;10.980;2023-09-19T14:21:46;23.30;99.90
10968;DHT22;5536;49.602;10.980;2023-09-19T14:24:16;23.20;99.90
10968;DHT22;5536;49.602;10.980;2023-09-19T14:26:44;22.80;99.90
10968;DHT22;5536;49.602;10.980;2023-09-19T14:29:11;22.90;99.90
10968;DHT22;5536;49.602;10.980;2023-09-19T14:31:40;22.70;99.90
10968;DHT22;5536;49.602;10.980;2023-09-19T14:34:07;22.60;99.90
10968;DHT22;5536;49.602;10.980;2023-09-19T14:36:35;22.70;99.90
10968;DHT22;5536;49.602;10.980;2023-09-19T14:39:04;22.80;99.90
10968;DHT22;5536;49.602;10.980;2023-09-19T14:41:32;22.60;99.90
10968;DHT22;5536;49.602;10.980;2023-09-19T14:43:59;22.40;99.90
10968;DHT22;5536;49.602;10.980;2023-09-19T14:46:26;22.40;99.90
10968;DHT22;5536;49.602;10.980;2023-09-19T14:48:56;22.30;99.90
10968;DHT22;5536;49.602;10.980;2023-09-19T14:51:25;22.30;99.90
10968;DHT22;5536;49.602;10.980;2023-09-19T14:53:53;22.40;99.90
10968;DHT22;5536;49.602;10.980;2023-09-19T14:56:20;22.30;99.90
10968;DHT22;5536;49.602;10.980;2023-09-19T14:58:49;22.20;99.90
10968;DHT22;5536;49.602;10.980;2023-09-19T15:01:16;22.20;99.90
10968;DHT22;5536;49.602;10.980;2023-09-19T15:03:43;22.20;99.90
10968;DHT22;5536;49.602;10.980;2023-09-19T15:06:13;22.00;99.90
10968;DHT22;5536;49.602;10.980;2023-09-19T15:08:44;21.90;99.90
10968;DHT22;5536;49.602;10.980;2023-09-19T15:11:13;21.90;99.90
10968;DHT22;5536;49.602;10.980;2023-09-19T15:13:43;21.90;99.90
10968;DHT22;5536;49.602;10.980;2023-09-19T15:16:10;21.90;99.90
10968;DHT22;5536;49.602;10.980;2023-09-19T15:18:39;21.90;99.90
10968;DHT22;5536;49.602;10.980;2023-09-19T15:21:08;21.90;99.90
10968;DHT22;5536;49.602;10.980;2023-09-19T15:23:39;21.80;99.90
10968;DHT22;5536;49.602;10.980;2023-09-19T15:26:07;21.70;99.90
10968;DHT22;5536;49.602;10.980;2023-09-19T15:28:35;21.60;99.90
10968;DHT22;5536;49.602;10.980;2023-09-19T15:31:03;21.60;99.90
10968;DHT22;5536;49.602;10.980;2023-09-19T15:33:30;21.60;99.90
10968;DHT22;5536;49.602;10.980;2023-09-19T15:36:05;21.70;99.90
10968;DHT22;5536;49.602;10.980;2023-09-19T15:38:57;21.70;99.90
10968;DHT22;5536;49.602;10.980;2023-09-19T15:41:26;21.60;99.90
10968;DHT22;5536;49.602;10.980;2023-09-19T15:43:53;21.60;99.90
10968;DHT22;5536;49.602;10.980;2023-09-19T15:46:20;21.60;99.90
10968;DHT22;5536;49.602;10.980;2023-09-19T15:48:48;21.60;99.90
10968;DHT22;5536;49.602;10.980;2023-09-19T15:51:16;21.70;99.90
10968;DHT22;5536;49.602;10.980;2023-09-19T15:53:45;21.70;99.90
10968;DHT22;5536;49.602;10.980;2023-09-19T15:56:14;21.60;99.90
10968;DHT22;5536;49.602;10.980;2023-09-19T15:58:44;21.50;99.90
10968;DHT22;5536;49.602;10.980;2023-09-19T16:01:11;21.60;99.90